createdAt,value
2023-12-30T00:00:20.128Z,93907.97
2023-12-30T00:02:48.941Z,93913.72
2023-12-30T00:05:18.553Z,93902.88
2023-12-30T00:07:46.154Z,93904.50
2023-12-30T00:10:13.412Z,93915.06
2023-12-30T00:12:40.228Z,93899.47
2023-12-30T00:15:07.899Z,93908.78
2023-12-30T00:17:34.838Z,93902.16
2023-12-30T00:20:01.753Z,93889.50
2023-12-30T00:22:28.663Z,93894.22
2023-12-30T00:24:55.686Z,93895.81
2023-12-30T00:27:22.542Z,93896.50
2023-12-30T00:29:50.915Z,93893.91
2023-12-30T00:32:18.017Z,93888.44
2023-12-30T00:34:44.838Z,93892.72
2023-12-30T00:37:14.279Z,93889.97
2023-12-30T00:39:42.115Z,93889.66
2023-12-30T00:42:08.783Z,93878.78
2023-12-30T00:44:35.654Z,93869.81
2023-12-30T00:47:02.457Z,93886.91
2023-12-30T00:49:29.193Z,93885.41
2023-12-30T00:51:56.073Z,93883.06
2023-12-30T00:54:22.811Z,93889.63
2023-12-30T00:56:49.699Z,93896.63
2023-12-30T00:59:17.515Z,93899.34
2023-12-30T01:01:44.303Z,93901.69
2023-12-30T01:04:13.686Z,93907.53
2023-12-30T01:06:40.491Z,93899.69
2023-12-30T01:09:07.150Z,93910.22
2023-12-30T01:11:34.014Z,93912.56
2023-12-30T01:14:01.170Z,93900.13
2023-12-30T01:16:27.953Z,93904.38
2023-12-30T01:18:54.902Z,93904.72
2023-12-30T01:21:21.636Z,93915.56
2023-12-30T01:23:48.329Z,93915.16
2023-12-30T01:26:15.011Z,93910.09
2023-12-30T01:28:41.680Z,93917.50
2023-12-30T01:31:08.470Z,93918.25
2023-12-30T01:33:35.262Z,93914.22
2023-12-30T01:36:02.079Z,93915.41
2023-12-30T01:38:28.823Z,93924.69
2023-12-30T01:40:56.780Z,93933.16
2023-12-30T01:43:34.693Z,93939.78
2023-12-30T01:46:05.665Z,93942.81
2023-12-30T01:48:33.104Z,93936.91
2023-12-30T01:51:02.752Z,93943.81
2023-12-30T01:53:33.115Z,93950.28
2023-12-30T01:56:00.324Z,93939.19
2023-12-30T01:58:27.186Z,93959.91
2023-12-30T02:00:56.278Z,93962.78
2023-12-30T02:03:23.117Z,93967.44
2023-12-30T02:05:49.938Z,93960.88
2023-12-30T02:08:17.290Z,93972.03
2023-12-30T02:10:44.275Z,93970.44
2023-12-30T02:13:11.736Z,93968.50
2023-12-30T02:15:38.943Z,93980.41
2023-12-30T02:18:05.834Z,93974.56
2023-12-30T02:20:34.570Z,93973.81
2023-12-30T02:23:01.728Z,93980.06
2023-12-30T02:25:28.739Z,93973.47
2023-12-30T02:27:55.516Z,93966.69
2023-12-30T02:30:25.220Z,93963.34
2023-12-30T02:32:56.506Z,93959.22
2023-12-30T02:35:24.386Z,93969.16
2023-12-30T02:37:51.092Z,93965.75
2023-12-30T02:40:17.908Z,93968.03
2023-12-30T02:42:44.742Z,93965.44
2023-12-30T02:45:12.757Z,93961.22
2023-12-30T02:47:39.558Z,93957.72
2023-12-30T02:50:06.990Z,93952.41
2023-12-30T02:52:33.835Z,93961.41
2023-12-30T02:55:02.045Z,93959.09
2023-12-30T02:57:28.832Z,93956.00
2023-12-30T02:59:55.565Z,93963.44
2023-12-30T03:02:22.300Z,93962.63
2023-12-30T03:04:49.133Z,93959.09
2023-12-30T03:07:15.908Z,93961.00
2023-12-30T03:09:42.708Z,93958.25
2023-12-30T03:12:10.147Z,93968.72
2023-12-30T03:14:36.923Z,93959.78
2023-12-30T03:17:03.931Z,93960.59
2023-12-30T03:19:30.645Z,93961.00
2023-12-30T03:21:57.377Z,93964.19
2023-12-30T03:24:24.049Z,93959.59
2023-12-30T03:26:50.724Z,93962.31
2023-12-30T03:29:17.436Z,93971.31
2023-12-30T03:31:44.108Z,93969.41
2023-12-30T03:34:11.046Z,93959.72
2023-12-30T03:36:38.187Z,93964.75
2023-12-30T03:39:07.498Z,93973.72
2023-12-30T03:41:34.209Z,93964.38
2023-12-30T03:44:00.914Z,93967.16
2023-12-30T03:46:27.688Z,93969.13
2023-12-30T03:48:54.592Z,93958.66
2023-12-30T03:51:21.377Z,93954.81
2023-12-30T03:53:48.960Z,93960.69
2023-12-30T03:56:15.761Z,93962.63
2023-12-30T03:58:42.472Z,93954.06
2023-12-30T04:01:09.315Z,93954.47
2023-12-30T04:03:36.141Z,93957.16
2023-12-30T04:06:02.839Z,93969.22
2023-12-30T04:08:29.585Z,93967.69
2023-12-30T04:10:56.229Z,93961.50
2023-12-30T04:13:23.026Z,93955.66
2023-12-30T04:15:49.769Z,93958.78
2023-12-30T04:18:16.632Z,93955.63
2023-12-30T04:20:43.567Z,93963.81
2023-12-30T04:23:10.217Z,93967.31
2023-12-30T04:25:37.365Z,93978.97
2023-12-30T04:28:04.413Z,93967.72
2023-12-30T04:30:31.137Z,93966.59
2023-12-30T04:32:57.913Z,93966.97
2023-12-30T04:35:24.613Z,93960.00
2023-12-30T04:37:51.294Z,93962.75
2023-12-30T04:40:18.023Z,93965.00
2023-12-30T04:42:44.794Z,93970.88
2023-12-30T04:45:14.034Z,93962.69
2023-12-30T04:47:41.371Z,93977.06
2023-12-30T04:50:09.155Z,93981.31
2023-12-30T04:52:35.977Z,93982.44
2023-12-30T04:55:04.126Z,93984.38
2023-12-30T04:57:31.027Z,93989.44
2023-12-30T04:59:57.751Z,93990.19
2023-12-30T05:02:24.516Z,93974.72
2023-12-30T05:04:51.249Z,93978.22
2023-12-30T05:07:18.070Z,93986.41
2023-12-30T05:09:44.897Z,93991.09
2023-12-30T05:12:11.771Z,94001.56
2023-12-30T05:14:38.574Z,93997.31
2023-12-30T05:17:05.336Z,93991.88
2023-12-30T05:19:32.951Z,93997.31
2023-12-30T05:21:59.684Z,93998.06
2023-12-30T05:24:26.516Z,93992.25
2023-12-30T05:26:53.204Z,93997.28
2023-12-30T05:29:20.420Z,94001.97
2023-12-30T05:31:47.455Z,93992.28
2023-12-30T05:34:16.256Z,93993.88
2023-12-30T05:36:42.961Z,94005.56
2023-12-30T05:39:09.744Z,94000.09
2023-12-30T05:41:36.529Z,94007.09
2023-12-30T05:44:03.180Z,94004.00
2023-12-30T05:46:32.075Z,93995.47
2023-12-30T05:48:58.922Z,94001.31
2023-12-30T05:51:25.689Z,94002.06
2023-12-30T05:53:52.438Z,93999.31
2023-12-30T05:56:23.594Z,94010.19
2023-12-30T05:58:51.204Z,94003.16
2023-12-30T06:01:18.074Z,94000.06
2023-12-30T06:03:44.794Z,94003.91
2023-12-30T06:06:11.532Z,94006.63
2023-12-30T06:08:38.283Z,94010.91
2023-12-30T06:11:05.196Z,94006.66
2023-12-30T06:13:33.202Z,94012.13
2023-12-30T06:16:00.067Z,94005.09
2023-12-30T06:18:32.587Z,94001.25
2023-12-30T06:20:59.964Z,93996.63
2023-12-30T06:23:29.917Z,94007.81
2023-12-30T06:25:56.693Z,94005.91
2023-12-30T06:28:25.690Z,94003.50
2023-12-30T06:30:52.664Z,94014.38
2023-12-30T06:33:22.162Z,93997.31
2023-12-30T06:35:48.987Z,94005.47
2023-12-30T06:38:16.101Z,94004.28
2023-12-30T06:40:43.189Z,94008.13
2023-12-30T06:43:10.390Z,94014.38
2023-12-30T06:45:37.208Z,94008.94
2023-12-30T06:48:04.552Z,94008.56
2023-12-30T06:50:31.446Z,94018.25
2023-12-30T06:53:00.531Z,94011.94
2023-12-30T06:55:32.439Z,94018.88
2023-12-30T06:58:05.230Z,94028.16
2023-12-30T07:00:32.229Z,94012.06
2023-12-30T07:02:59.348Z,94015.84
2023-12-30T07:05:26.359Z,94020.50
2023-12-30T07:07:53.054Z,94025.56
2023-12-30T07:10:19.830Z,94027.94
2023-12-30T07:12:46.574Z,94027.53
2023-12-30T07:15:13.528Z,94027.91
2023-12-30T07:17:40.372Z,94038.09
2023-12-30T07:20:08.524Z,94036.97
2023-12-30T07:22:35.303Z,94044.34
2023-12-30T07:25:02.153Z,94047.16
2023-12-30T07:27:29.186Z,94047.25
2023-12-30T07:29:56.056Z,94054.16
2023-12-30T07:32:22.703Z,94052.72
2023-12-30T07:34:49.402Z,94052.03
2023-12-30T07:37:16.187Z,94052.78
2023-12-30T07:39:42.941Z,94053.63
2023-12-30T07:42:09.580Z,94058.78
2023-12-30T07:44:39.161Z,94061.56
2023-12-30T07:47:08.134Z,94067.06
2023-12-30T07:49:35.428Z,94070.97
2023-12-30T07:52:02.599Z,94063.28
2023-12-30T07:54:29.374Z,94061.06
2023-12-30T07:56:56.071Z,94070.09
2023-12-30T07:59:22.852Z,94070.47
2023-12-30T08:01:49.615Z,94071.63
2023-12-30T08:04:16.505Z,94064.69
2023-12-30T08:06:43.405Z,94068.22
2023-12-30T08:09:12.380Z,94066.72
2023-12-30T08:11:50.222Z,94072.56
2023-12-30T08:14:25.474Z,94064.34
2023-12-30T08:16:52.275Z,94072.22
2023-12-30T08:19:19.174Z,94061.41
2023-12-30T08:21:46.234Z,94053.75
2023-12-30T08:24:15.684Z,94056.69
2023-12-30T08:26:42.470Z,94054.78
2023-12-30T08:29:10.560Z,94056.38
2023-12-30T08:31:37.538Z,94060.91
2023-12-30T08:34:04.402Z,94053.97
2023-12-30T08:36:31.637Z,94053.19
2023-12-30T08:38:58.311Z,94045.97
2023-12-30T08:41:28.930Z,94045.75
2023-12-30T08:43:57.766Z,94038.50
2023-12-30T08:46:24.746Z,94036.13
2023-12-30T08:48:51.697Z,94029.31
2023-12-30T08:51:18.651Z,94029.28
2023-12-30T08:53:45.635Z,94037.44
2023-12-30T08:56:13.136Z,94038.72
2023-12-30T08:58:39.971Z,94047.13
2023-12-30T09:01:07.385Z,94049.28
2023-12-30T09:03:34.336Z,94041.75
2023-12-30T09:06:01.092Z,94045.88
2023-12-30T09:08:28.154Z,94062.47
2023-12-30T09:10:55.285Z,94058.06
2023-12-30T09:13:22.453Z,94075.63
2023-12-30T09:15:49.556Z,94072.47
2023-12-30T09:18:16.698Z,94069.09
2023-12-30T09:20:44.584Z,94066.00
2023-12-30T09:23:11.262Z,94057.88
2023-12-30T09:25:38.064Z,94056.47
2023-12-30T09:28:05.018Z,94047.06
2023-12-30T09:30:31.919Z,94052.94
2023-12-30T09:32:58.820Z,94057.63
2023-12-30T09:35:25.696Z,94068.34
2023-12-30T09:37:52.531Z,94068.34
2023-12-30T09:40:19.428Z,94063.44
2023-12-30T09:42:48.605Z,94068.91
2023-12-30T09:45:16.654Z,94065.84
2023-12-30T09:47:47.036Z,94067.53
2023-12-30T09:50:14.148Z,94072.78
2023-12-30T09:52:40.968Z,94066.22
2023-12-30T09:55:08.256Z,94067.56
2023-12-30T09:57:35.615Z,94062.69
2023-12-30T10:00:06.743Z,94065.75
2023-12-30T10:02:34.245Z,94066.44
2023-12-30T10:05:01.981Z,94065.75
2023-12-30T10:07:32.802Z,94056.75
2023-12-30T10:09:59.776Z,94056.09
2023-12-30T10:12:26.937Z,94052.38
2023-12-30T10:14:53.731Z,94055.31
2023-12-30T10:17:21.432Z,94045.94
2023-12-30T10:19:48.733Z,94050.00
2023-12-30T10:22:16.258Z,94042.00
2023-12-30T10:24:43.432Z,94046.84
2023-12-30T10:27:11.688Z,94037.44
2023-12-30T10:29:46.979Z,94030.78
2023-12-30T10:32:22.475Z,94033.16
2023-12-30T10:34:49.454Z,94037.66
2023-12-30T10:37:17.415Z,94019.38
2023-12-30T10:39:47.999Z,94023.59
2023-12-30T10:42:15.073Z,94021.88
2023-12-30T10:44:41.919Z,94028.28
2023-12-30T10:47:12.354Z,94021.88
2023-12-30T10:49:41.317Z,94017.91
2023-12-30T10:52:12.920Z,94020.19
2023-12-30T10:54:48.179Z,94015.47
2023-12-30T10:57:19.001Z,94011.41
2023-12-30T10:59:50.750Z,94017.47
2023-12-30T11:02:18.773Z,94010.31
2023-12-30T11:04:46.787Z,94004.28
2023-12-30T11:07:16.422Z,94000.50
2023-12-30T11:09:44.079Z,93993.28
2023-12-30T11:12:10.972Z,94008.56
2023-12-30T11:14:38.039Z,93999.19
2023-12-30T11:17:05.433Z,94002.03
2023-12-30T11:19:33.584Z,93993.66
2023-12-30T11:22:02.421Z,93982.69
2023-12-30T11:24:29.429Z,93969.75
2023-12-30T11:26:56.766Z,93967.44
2023-12-30T11:29:29.095Z,93960.81
2023-12-30T11:31:57.742Z,93962.00
2023-12-30T11:34:28.106Z,93957.00
2023-12-30T11:36:58.638Z,93959.25
2023-12-30T11:39:29.337Z,93964.16
2023-12-30T11:42:00.835Z,93965.34
2023-12-30T11:44:31.211Z,93962.47
2023-12-30T11:46:59.642Z,93962.59
2023-12-30T11:49:27.474Z,93963.72
2023-12-30T11:52:03.769Z,93958.69
2023-12-30T11:54:33.479Z,93963.34
2023-12-30T11:57:00.226Z,93964.41
2023-12-30T11:59:27.206Z,93956.81
2023-12-30T12:01:54.074Z,93963.56
2023-12-30T12:04:20.904Z,93952.16
2023-12-30T12:06:48.036Z,93945.38
2023-12-30T12:09:14.797Z,93938.28
2023-12-30T12:11:41.541Z,93935.88
2023-12-30T12:14:08.336Z,93933.47
2023-12-30T12:16:35.365Z,93926.56
2023-12-30T12:19:05.125Z,93928.56
2023-12-30T12:21:32.249Z,93931.31
2023-12-30T12:23:58.971Z,93928.06
2023-12-30T12:26:26.129Z,93905.69
2023-12-30T12:28:56.605Z,93904.72
2023-12-30T12:31:29.437Z,93908.09
2023-12-30T12:33:56.285Z,93894.06
2023-12-30T12:36:23.447Z,93898.00
2023-12-30T12:38:51.526Z,93900.91
2023-12-30T12:41:18.285Z,93896.66
2023-12-30T12:43:45.115Z,93894.47
2023-12-30T12:46:12.458Z,93897.06
2023-12-30T12:48:39.961Z,93892.19
2023-12-30T12:51:07.352Z,93885.97
2023-12-30T12:53:34.149Z,93886.44
2023-12-30T12:56:00.924Z,93881.38
2023-12-30T12:58:27.627Z,93881.09
2023-12-30T13:00:54.834Z,93889.00
2023-12-30T13:03:21.624Z,93886.19
2023-12-30T13:05:48.511Z,93895.63
2023-12-30T13:08:15.469Z,93895.63
2023-12-30T13:10:49.562Z,93899.91
2023-12-30T13:13:16.559Z,93889.53
2023-12-30T13:15:43.815Z,93884.75
2023-12-30T13:18:14.774Z,93887.59
2023-12-30T13:20:43.594Z,93884.75
2023-12-30T13:23:12.388Z,93881.13
2023-12-30T13:25:39.518Z,93876.19
2023-12-30T13:28:07.656Z,93868.66
2023-12-30T13:30:35.773Z,93873.69
2023-12-30T13:33:06.318Z,93866.69
2023-12-30T13:35:38.615Z,93863.28
2023-12-30T13:38:15.892Z,93870.41
2023-12-30T13:40:44.346Z,93869.63
2023-12-30T13:43:11.563Z,93867.53
2023-12-30T13:45:44.441Z,93873.75
2023-12-30T13:48:40.345Z,93867.97
2023-12-30T13:51:07.319Z,93863.81
2023-12-30T13:53:34.161Z,93862.69
2023-12-30T13:56:03.180Z,93858.59
2023-12-30T13:58:30.080Z,93851.97
2023-12-30T14:00:57.233Z,93856.19
2023-12-30T14:03:25.158Z,93847.06
2023-12-30T14:05:52.123Z,93850.75
2023-12-30T14:08:23.272Z,93850.44
2023-12-30T14:10:51.330Z,93844.78
2023-12-30T14:13:24.031Z,93842.81
2023-12-30T14:15:52.593Z,93841.50
2023-12-30T14:18:20.177Z,93841.47
2023-12-30T14:20:48.044Z,93844.84
2023-12-30T14:23:14.888Z,93840.38
2023-12-30T14:25:42.351Z,93844.31
2023-12-30T14:28:09.367Z,93833.81
2023-12-30T14:30:36.405Z,93834.66
2023-12-30T14:33:05.869Z,93832.38
2023-12-30T14:35:32.863Z,93833.91
2023-12-30T14:38:02.499Z,93837.81
2023-12-30T14:40:29.763Z,93841.34
2023-12-30T14:42:56.788Z,93833.16
2023-12-30T14:45:24.045Z,93831.41
2023-12-30T14:47:51.065Z,93845.44
2023-12-30T14:50:18.021Z,93843.53
2023-12-30T14:52:45.161Z,93834.50
2023-12-30T14:55:12.600Z,93838.81
2023-12-30T14:57:41.078Z,93840.53
2023-12-30T15:00:14.173Z,93836.34
2023-12-30T15:02:42.493Z,93836.69
2023-12-30T15:05:13.133Z,93839.91
2023-12-30T15:07:42.577Z,93844.59
2023-12-30T15:10:12.307Z,93851.22
2023-12-30T15:12:40.644Z,93850.47
2023-12-30T15:15:09.085Z,93852.81
2023-12-30T15:17:35.871Z,93845.03
2023-12-30T15:20:03.193Z,93844.69
2023-12-30T15:22:31.231Z,93851.69
2023-12-30T15:24:59.240Z,93854.13
2023-12-30T15:27:26.004Z,93858.44
2023-12-30T15:29:52.839Z,93855.28
2023-12-30T15:32:19.804Z,93846.00
2023-12-30T15:34:46.798Z,93841.69
2023-12-30T15:37:13.784Z,93842.88
2023-12-30T15:39:40.560Z,93841.75
2023-12-30T15:42:08.072Z,93842.97
2023-12-30T15:44:38.283Z,93831.72
2023-12-30T15:47:10.942Z,93826.69
2023-12-30T15:49:39.113Z,93834.50
2023-12-30T15:52:07.476Z,93836.06
2023-12-30T15:54:34.579Z,93837.66
2023-12-30T15:57:01.336Z,93830.66
2023-12-30T15:59:28.679Z,93833.75
2023-12-30T16:01:55.405Z,93835.72
2023-12-30T16:04:22.190Z,93843.50
2023-12-30T16:06:49.307Z,93842.75
2023-12-30T16:09:16.027Z,93842.34
2023-12-30T16:11:42.738Z,93844.69
2023-12-30T16:14:11.151Z,93843.91
2023-12-30T16:16:45.319Z,93845.09
2023-12-30T16:19:13.633Z,93839.25
2023-12-30T16:21:40.395Z,93835.34
2023-12-30T16:24:07.753Z,93841.16
2023-12-30T16:26:35.170Z,93836.13
2023-12-30T16:29:03.581Z,93829.84
2023-12-30T16:31:30.346Z,93831.00
2023-12-30T16:33:57.179Z,93834.50
2023-12-30T16:36:25.621Z,93833.69
2023-12-30T16:38:55.400Z,93826.28
2023-12-30T16:41:23.859Z,93822.75
2023-12-30T16:43:51.005Z,93834.78
2023-12-30T16:46:19.731Z,93827.38
2023-12-30T16:48:46.655Z,93825.38
2023-12-30T16:51:14.156Z,93830.44
2023-12-30T16:53:42.563Z,93826.91
2023-12-30T16:56:10.139Z,93824.19
2023-12-30T16:58:37.127Z,93824.94
2023-12-30T17:01:05.571Z,93828.00
2023-12-30T17:03:32.558Z,93834.56
2023-12-30T17:05:59.726Z,93832.22
2023-12-30T17:08:26.569Z,93835.69
2023-12-30T17:10:53.328Z,93827.13
2023-12-30T17:13:23.035Z,93829.03
2023-12-30T17:15:54.013Z,93822.81
2023-12-30T17:18:20.954Z,93813.84
2023-12-30T17:20:47.737Z,93816.16
2023-12-30T17:23:14.513Z,93813.44
2023-12-30T17:25:41.310Z,93815.72
2023-12-30T17:28:09.835Z,93818.81
2023-12-30T17:30:36.933Z,93814.09
2023-12-30T17:33:04.447Z,93809.81
2023-12-30T17:35:31.794Z,93814.84
2023-12-30T17:37:58.738Z,93812.94
2023-12-30T17:40:25.719Z,93809.00
2023-12-30T17:42:52.532Z,93808.56
2023-12-30T17:45:19.269Z,93803.88
2023-12-30T17:47:46.105Z,93811.22
2023-12-30T17:50:12.954Z,93815.13
2023-12-30T17:52:39.766Z,93808.88
2023-12-30T17:55:07.162Z,93813.44
2023-12-30T17:57:33.986Z,93819.63
2023-12-30T18:00:00.708Z,93818.50
2023-12-30T18:02:27.709Z,93819.59
2023-12-30T18:04:54.602Z,93823.50
2023-12-30T18:07:21.435Z,93824.19
2023-12-30T18:09:48.485Z,93816.34
2023-12-30T18:12:15.307Z,93822.94
2023-12-30T18:14:42.070Z,93813.56
2023-12-30T18:17:09.330Z,93813.91
2023-12-30T18:19:36.080Z,93814.28
2023-12-30T18:22:03.240Z,93804.53
2023-12-30T18:24:30.219Z,93808.41
2023-12-30T18:26:57.319Z,93806.84
2023-12-30T18:29:24.239Z,93802.91
2023-12-30T18:31:52.454Z,93800.50
2023-12-30T18:34:19.416Z,93788.81
2023-12-30T18:36:47.149Z,93790.75
2023-12-30T18:39:14.169Z,93798.06
2023-12-30T18:41:41.028Z,93788.75
2023-12-30T18:44:07.918Z,93785.63
2023-12-30T18:46:35.375Z,93783.59
2023-12-30T18:49:02.495Z,93789.00
2023-12-30T18:51:29.409Z,93784.25
2023-12-30T18:53:56.507Z,93791.25
2023-12-30T18:56:23.346Z,93795.44
2023-12-30T18:58:50.860Z,93794.25
2023-12-30T19:01:18.236Z,93782.97
2023-12-30T19:03:45.145Z,93785.63
2023-12-30T19:06:12.001Z,93788.28
2023-12-30T19:08:39.625Z,93789.00
2023-12-30T19:11:07.155Z,93793.31
2023-12-30T19:13:35.418Z,93791.25
2023-12-30T19:16:02.432Z,93781.53
2023-12-30T19:18:29.335Z,93784.59
2023-12-30T19:20:58.089Z,93783.78
2023-12-30T19:23:25.140Z,93779.53
2023-12-30T19:25:51.978Z,93772.88
2023-12-30T19:28:18.901Z,93768.59
2023-12-30T19:30:45.790Z,93771.66
2023-12-30T19:33:13.974Z,93764.69
2023-12-30T19:35:42.629Z,93763.81
2023-12-30T19:38:09.707Z,93763.41
2023-12-30T19:40:36.579Z,93754.09
2023-12-30T19:43:04.978Z,93747.50
2023-12-30T19:45:32.048Z,93747.91
2023-12-30T19:48:00.151Z,93744.44
2023-12-30T19:50:29.173Z,93737.81
2023-12-30T19:52:56.617Z,93747.34
2023-12-30T19:55:23.466Z,93744.63
2023-12-30T19:57:50.229Z,93748.44
2023-12-30T20:00:17.358Z,93755.19
2023-12-30T20:02:44.513Z,93742.44
2023-12-30T20:05:14.760Z,93738.63
2023-12-30T20:07:41.915Z,93740.91
2023-12-30T20:10:15.031Z,93740.09
2023-12-30T20:12:41.979Z,93743.19
2023-12-30T20:15:08.851Z,93738.13
2023-12-30T20:17:36.913Z,93735.00
2023-12-30T20:20:07.858Z,93741.66
2023-12-30T20:22:34.798Z,93737.06
2023-12-30T20:25:01.863Z,93728.94
2023-12-30T20:27:29.166Z,93735.50
2023-12-30T20:29:56.065Z,93725.84
2023-12-30T20:32:23.639Z,93730.78
2023-12-30T20:34:51.439Z,93729.19
2023-12-30T20:37:18.717Z,93729.94
2023-12-30T20:39:45.876Z,93726.81
2023-12-30T20:42:12.842Z,93727.97
2023-12-30T20:44:40.768Z,93720.59
2023-12-30T20:47:08.426Z,93722.88
2023-12-30T20:49:37.346Z,93727.81
2023-12-30T20:52:05.406Z,93725.88
2023-12-30T20:54:33.571Z,93711.56
2023-12-30T20:57:00.414Z,93708.47
2023-12-30T20:59:27.189Z,93707.63
2023-12-30T21:01:53.920Z,93714.06
2023-12-30T21:04:20.968Z,93713.66
2023-12-30T21:06:47.874Z,93713.25
2023-12-30T21:09:15.728Z,93703.13
2023-12-30T21:11:43.183Z,93700.44
2023-12-30T21:14:10.026Z,93704.66
2023-12-30T21:16:37.092Z,93703.03
2023-12-30T21:19:04.336Z,93699.53
2023-12-30T21:21:31.243Z,93702.94
2023-12-30T21:23:57.997Z,93691.22
2023-12-30T21:26:25.901Z,93691.59
2023-12-30T21:28:52.638Z,93691.19
2023-12-30T21:31:19.607Z,93693.09
2023-12-30T21:33:46.552Z,93689.91
2023-12-30T21:36:15.805Z,93681.69
2023-12-30T21:38:44.381Z,93674.19
2023-12-30T21:41:12.908Z,93676.06
2023-12-30T21:43:42.455Z,93663.69
2023-12-30T21:46:09.179Z,93659.50
2023-12-30T21:48:36.158Z,93655.94
2023-12-30T21:51:07.539Z,93658.28
2023-12-30T21:53:34.325Z,93644.88
2023-12-30T21:56:01.078Z,93651.97
2023-12-30T21:58:28.089Z,93646.72
2023-12-30T22:00:54.815Z,93640.91
2023-12-30T22:03:21.733Z,93635.53
2023-12-30T22:05:48.568Z,93643.28
2023-12-30T22:08:15.375Z,93636.34
2023-12-30T22:10:42.220Z,93634.81
2023-12-30T22:13:11.159Z,93630.91
2023-12-30T22:15:38.433Z,93631.34
2023-12-30T22:18:05.256Z,93631.28
2023-12-30T22:20:32.488Z,93635.47
2023-12-30T22:22:59.245Z,93642.97
2023-12-30T22:25:26.002Z,93632.81
2023-12-30T22:27:52.770Z,93620.09
2023-12-30T22:30:19.574Z,93632.94
2023-12-30T22:32:46.341Z,93630.22
2023-12-30T22:35:14.733Z,93625.97
2023-12-30T22:37:42.389Z,93628.19
2023-12-30T22:40:13.187Z,93616.81
2023-12-30T22:42:40.594Z,93620.94
2023-12-30T22:45:09.028Z,93620.38
2023-12-30T22:47:39.043Z,93623.50
2023-12-30T22:50:07.178Z,93622.72
2023-12-30T22:52:34.636Z,93614.06
2023-12-30T22:55:02.418Z,93611.34
2023-12-30T22:57:29.284Z,93607.28
2023-12-30T22:59:56.530Z,93601.63
2023-12-30T23:02:23.645Z,93596.91
2023-12-30T23:04:51.006Z,93593.44
2023-12-30T23:07:17.873Z,93597.69
2023-12-30T23:09:46.076Z,93591.03
2023-12-30T23:12:15.601Z,93588.91
2023-12-30T23:14:42.386Z,93584.63
2023-12-30T23:17:15.842Z,93588.13
2023-12-30T23:19:44.152Z,93573.97
2023-12-30T23:22:10.987Z,93579.69
2023-12-30T23:24:39.118Z,93563.75
2023-12-30T23:27:06.273Z,93566.88
2023-12-30T23:29:34.887Z,93563.88
2023-12-30T23:32:01.694Z,93566.88
2023-12-30T23:34:38.527Z,93557.94
2023-12-30T23:37:10.087Z,93557.75
2023-12-30T23:39:36.785Z,93555.53
2023-12-30T23:42:03.647Z,93548.81
2023-12-30T23:44:30.830Z,93538.47
2023-12-30T23:46:57.542Z,93538.59
2023-12-30T23:49:24.467Z,93531.84
2023-12-30T23:51:51.194Z,93528.66
2023-12-30T23:54:17.892Z,93521.78
2023-12-30T23:56:44.603Z,93503.09
2023-12-30T23:59:11.284Z,93512.63
